Mesa Verde National Park, Colorado
Current Conditions -  °F | °C
As of 8:53 AM on Friday 24 Oct 2014 (Local Time) from KCEZ Reporting Station
Clear Clear  
Wind Chill: 43°   Ceiling: Unl
Heat Index: 45°   Visibility: 10mi
Dew Point: 32°   Wind: 5mph
Humidity: 60%   Direction: 80°E
Pressure: 30.38"   Gusts: NA
Location:  37.1877°N, 108.492°W
Report Text: KCEZ 241453Z AUTO 08004KT 10SM CLR 07/00 A3038 RMK AO2 SLP264 T00720000 53015
Loading
Personal Weather Stations






























Interactive Weather Map
Tropical Storm Tracking
New forecast layout! Learn more

10-Day Weather Forecast

Advertisements
Track Severe Weather on mobile